createdAt,value
2023-02-05T00:01:08.794Z,100915.73
2023-02-05T00:03:42.821Z,100922.80
2023-02-05T00:06:11.599Z,100924.83
2023-02-05T00:08:39.980Z,100931.08
2023-02-05T00:11:09.514Z,100942.33
2023-02-05T00:13:41.499Z,100941.70
2023-02-05T00:16:20.162Z,100952.23
2023-02-05T00:18:48.754Z,100960.69
2023-02-05T00:21:18.585Z,100960.91
2023-02-05T00:23:47.555Z,100964.69
2023-02-05T00:26:15.960Z,100964.54
2023-02-05T00:28:45.455Z,100969.83
2023-02-05T00:31:16.717Z,100964.23
2023-02-05T00:33:45.175Z,100963.38
2023-02-05T00:36:13.751Z,100967.83
2023-02-05T00:38:43.466Z,100964.99
2023-02-05T00:41:12.499Z,100968.48
2023-02-05T00:43:41.243Z,100967.30
2023-02-05T00:46:10.938Z,100968.20
2023-02-05T00:48:40.564Z,100968.00
2023-02-05T00:51:10.611Z,100965.90
2023-02-05T00:53:38.959Z,100964.73
2023-02-05T00:56:08.047Z,100966.23
2023-02-05T00:58:37.043Z,100967.86
2023-02-05T01:01:05.765Z,100965.08
2023-02-05T01:03:34.320Z,100966.41
2023-02-05T01:06:03.566Z,100970.26
2023-02-05T01:08:31.928Z,100967.50
2023-02-05T01:11:00.360Z,100965.02
2023-02-05T01:13:28.522Z,100971.20
2023-02-05T01:15:57.172Z,100968.09
2023-02-05T01:18:25.324Z,100973.19
2023-02-05T01:20:53.901Z,100971.89
2023-02-05T01:23:22.384Z,100980.91
2023-02-05T01:25:50.996Z,100986.23
2023-02-05T01:28:19.346Z,100994.63
2023-02-05T01:30:51.323Z,100993.45
2023-02-05T01:33:19.817Z,100992.08
2023-02-05T01:35:48.271Z,100997.57
2023-02-05T01:38:16.857Z,100997.30
2023-02-05T01:40:45.027Z,100993.77
2023-02-05T01:43:19.039Z,101000.90
2023-02-05T01:46:12.126Z,101005.04
2023-02-05T01:48:44.467Z,101011.73
2023-02-05T01:51:15.917Z,101016.50
2023-02-05T01:53:46.257Z,101021.37
2023-02-05T01:56:22.713Z,101021.84
2023-02-05T01:58:58.710Z,101026.14
2023-02-05T02:01:28.314Z,101026.90
2023-02-05T02:04:00.137Z,101033.02
2023-02-05T02:06:28.721Z,101033.59
2023-02-05T02:08:58.018Z,101038.64
2023-02-05T02:11:29.334Z,101044.77
2023-02-05T02:14:06.552Z,101045.40
2023-02-05T02:16:37.962Z,101048.91
2023-02-05T02:19:17.955Z,101053.91
2023-02-05T02:22:04.165Z,101061.12
2023-02-05T02:24:38.061Z,101064.14
2023-02-05T02:27:18.728Z,101068.90
2023-02-05T02:30:02.388Z,101070.32
2023-02-05T02:33:32.607Z,101074.02
2023-02-05T02:36:04.468Z,101078.39
2023-02-05T02:38:40.214Z,101088.44
2023-02-05T02:41:25.074Z,101095.12
2023-02-05T02:44:03.495Z,101098.77
2023-02-05T02:46:44.407Z,101096.30
2023-02-05T02:49:19.202Z,101103.34
2023-02-05T02:51:51.013Z,101104.74
2023-02-05T02:54:21.999Z,101109.23
2023-02-05T02:56:52.896Z,101107.41
2023-02-05T02:59:25.927Z,101108.44
2023-02-05T03:01:57.646Z,101107.54
2023-02-05T03:04:38.969Z,101108.52
2023-02-05T03:07:13.763Z,101114.60
2023-02-05T03:09:55.771Z,101113.50
2023-02-05T03:12:24.684Z,101123.20
2023-02-05T03:14:53.984Z,101123.63
2023-02-05T03:17:24.832Z,101128.74
2023-02-05T03:20:02.640Z,101134.83
2023-02-05T03:22:30.910Z,101143.38
2023-02-05T03:24:59.277Z,101142.23
2023-02-05T03:27:28.301Z,101149.08
2023-02-05T03:29:57.774Z,101160.63
2023-02-05T03:32:48.068Z,101159.30
2023-02-05T03:35:30.834Z,101166.11
2023-02-05T03:37:59.573Z,101170.42
2023-02-05T03:40:45.978Z,101173.13
2023-02-05T03:43:25.822Z,101175.41
2023-02-05T03:46:13.361Z,101180.27
2023-02-05T03:48:51.152Z,101180.08
2023-02-05T03:51:19.634Z,101191.54
2023-02-05T03:54:04.714Z,101197.21
2023-02-05T03:56:55.313Z,101199.84
2023-02-05T03:59:26.343Z,101203.09
2023-02-05T04:01:55.787Z,101203.95
2023-02-05T04:04:25.044Z,101207.98
2023-02-05T04:06:54.034Z,101212.75
2023-02-05T04:09:23.539Z,101219.89
2023-02-05T04:11:51.826Z,101230.25
2023-02-05T04:14:22.581Z,101231.27
2023-02-05T04:16:52.568Z,101238.59
2023-02-05T04:19:22.388Z,101243.20
2023-02-05T04:21:50.759Z,101245.59
2023-02-05T04:24:20.011Z,101249.36
2023-02-05T04:26:48.540Z,101253.46
2023-02-05T04:29:17.139Z,101258.54
2023-02-05T04:31:47.159Z,101262.20
2023-02-05T04:34:15.779Z,101261.25
2023-02-05T04:36:45.853Z,101266.02
2023-02-05T04:39:14.337Z,101265.81
2023-02-05T04:41:42.818Z,101264.79
2023-02-05T04:44:10.995Z,101265.45
2023-02-05T04:46:39.278Z,101264.33
2023-02-05T04:49:07.584Z,101266.47
2023-02-05T04:51:35.923Z,101269.60
2023-02-05T04:54:04.402Z,101263.07
2023-02-05T04:56:32.784Z,101266.20
2023-02-05T04:59:01.372Z,101268.09
2023-02-05T05:01:29.573Z,101272.83
2023-02-05T05:03:58.123Z,101278.64
2023-02-05T05:06:26.507Z,101280.56
2023-02-05T05:08:54.758Z,101280.38
2023-02-05T05:11:23.163Z,101281.42
2023-02-05T05:13:52.354Z,101285.48
2023-02-05T05:16:20.573Z,101287.46
2023-02-05T05:18:52.329Z,101292.61
2023-02-05T05:21:20.574Z,101296.79
2023-02-05T05:23:49.061Z,101300.80
2023-02-05T05:26:17.334Z,101304.14
2023-02-05T05:28:45.616Z,101304.77
2023-02-05T05:31:19.757Z,101311.48
2023-02-05T05:33:48.505Z,101322.25
2023-02-05T05:36:17.293Z,101324.22
2023-02-05T05:38:45.574Z,101325.30
2023-02-05T05:41:41.947Z,101331.19
2023-02-05T05:44:10.915Z,101336.84
2023-02-05T05:46:39.177Z,101338.66
2023-02-05T05:49:07.455Z,101343.00
2023-02-05T05:51:35.730Z,101346.80
2023-02-05T05:54:04.416Z,101356.56
2023-02-05T05:56:32.487Z,101367.19
2023-02-05T05:59:00.870Z,101370.00
2023-02-05T06:01:29.244Z,101378.05
2023-02-05T06:03:57.617Z,101380.02
2023-02-05T06:06:25.902Z,101385.53
2023-02-05T06:08:53.969Z,101386.14
2023-02-05T06:11:22.351Z,101388.16
2023-02-05T06:13:50.726Z,101393.45
2023-02-05T06:16:19.234Z,101396.60
2023-02-05T06:18:47.484Z,101396.56
2023-02-05T06:21:15.869Z,101398.86
2023-02-05T06:23:44.452Z,101396.86
2023-02-05T06:26:12.623Z,101396.39
2023-02-05T06:28:40.902Z,101400.73
2023-02-05T06:31:09.219Z,101400.16
2023-02-05T06:33:37.770Z,101404.06
2023-02-05T06:36:06.929Z,101403.23
2023-02-05T06:38:36.261Z,101407.15
2023-02-05T06:41:04.805Z,101413.34
2023-02-05T06:43:32.940Z,101413.01
2023-02-05T06:46:01.342Z,101413.66
2023-02-05T06:48:29.776Z,101416.16
2023-02-05T06:50:57.848Z,101409.53
2023-02-05T06:53:26.582Z,101415.27
2023-02-05T06:55:58.807Z,101418.81
2023-02-05T06:58:27.084Z,101425.07
2023-02-05T07:00:55.768Z,101428.16
2023-02-05T07:03:24.161Z,101429.81
2023-02-05T07:05:52.323Z,101431.44
2023-02-05T07:08:20.398Z,101434.88
2023-02-05T07:10:48.776Z,101435.23
2023-02-05T07:13:16.972Z,101441.70
2023-02-05T07:15:46.172Z,101438.46
2023-02-05T07:18:14.325Z,101439.56
2023-02-05T07:20:42.435Z,101446.23
2023-02-05T07:23:10.982Z,101443.58
2023-02-05T07:25:39.260Z,101451.27
2023-02-05T07:28:09.170Z,101450.63
2023-02-05T07:30:37.761Z,101455.80
2023-02-05T07:33:06.182Z,101454.35
2023-02-05T07:35:37.697Z,101455.17
2023-02-05T07:38:06.375Z,101455.23
2023-02-05T07:40:34.860Z,101455.73
2023-02-05T07:43:03.141Z,101456.23
2023-02-05T07:45:33.782Z,101459.73
2023-02-05T07:48:02.347Z,101464.31
2023-02-05T07:50:30.726Z,101461.09
2023-02-05T07:52:59.005Z,101465.61
2023-02-05T07:55:27.282Z,101467.59
2023-02-05T07:57:55.557Z,101469.92
2023-02-05T08:00:25.002Z,101473.47
2023-02-05T08:02:53.232Z,101473.44
2023-02-05T08:05:21.714Z,101473.14
2023-02-05T08:07:49.891Z,101473.69
2023-02-05T08:10:18.584Z,101482.16
2023-02-05T08:12:47.363Z,101478.80
2023-02-05T08:15:15.946Z,101491.17
2023-02-05T08:17:44.326Z,101489.05
2023-02-05T08:20:13.221Z,101490.20
2023-02-05T08:22:43.466Z,101492.40
2023-02-05T08:25:14.387Z,101492.21
2023-02-05T08:27:43.328Z,101496.40
2023-02-05T08:30:15.020Z,101498.34
2023-02-05T08:32:47.607Z,101502.96
2023-02-05T08:35:16.808Z,101507.66
2023-02-05T08:37:45.081Z,101502.45
2023-02-05T08:40:14.076Z,101496.09
2023-02-05T08:42:42.362Z,101491.16
2023-02-05T08:45:10.731Z,101494.79
2023-02-05T08:47:39.110Z,101499.67
2023-02-05T08:50:07.898Z,101499.63
2023-02-05T08:52:36.380Z,101502.15
2023-02-05T08:55:05.171Z,101501.93
2023-02-05T08:57:33.650Z,101504.64
2023-02-05T09:00:01.950Z,101510.83
2023-02-05T09:02:32.232Z,101512.14
2023-02-05T09:05:08.432Z,101510.09
2023-02-05T09:07:40.010Z,101503.71
2023-02-05T09:10:10.908Z,101508.02
2023-02-05T09:12:40.018Z,101505.14
2023-02-05T09:15:09.422Z,101506.97
2023-02-05T09:17:37.786Z,101510.44
2023-02-05T09:20:06.808Z,101511.71
2023-02-05T09:22:35.056Z,101513.05
2023-02-05T09:25:03.331Z,101508.13
2023-02-05T09:27:32.024Z,101515.80
2023-02-05T09:30:00.513Z,101512.13
2023-02-05T09:32:28.787Z,101513.89
2023-02-05T09:34:56.970Z,101513.80
2023-02-05T09:37:25.441Z,101513.48
2023-02-05T09:40:23.118Z,101520.39
2023-02-05T09:43:07.765Z,101516.69
2023-02-05T09:45:48.726Z,101514.60
2023-02-05T09:48:49.621Z,101509.23
2023-02-05T09:51:28.944Z,101512.85
2023-02-05T09:54:03.994Z,101515.41
2023-02-05T09:56:34.306Z,101517.09
2023-02-05T09:59:05.744Z,101522.04
2023-02-05T10:01:45.402Z,101519.23
2023-02-05T10:04:14.784Z,101523.41
2023-02-05T10:07:04.770Z,101513.91
2023-02-05T10:09:48.396Z,101513.84
2023-02-05T10:12:37.965Z,101512.38
2023-02-05T10:15:33.290Z,101502.98
2023-02-05T10:18:07.143Z,101510.89
2023-02-05T10:20:53.122Z,101509.89
2023-02-05T10:23:58.731Z,101509.09
2023-02-05T10:26:48.815Z,101513.14
2023-02-05T10:29:23.622Z,101514.09
2023-02-05T10:32:18.574Z,101507.70
2023-02-05T10:34:54.505Z,101505.91
2023-02-05T10:37:36.815Z,101504.93
2023-02-05T10:40:15.945Z,101504.23
2023-02-05T10:43:15.964Z,101500.73
2023-02-05T10:45:45.164Z,101503.39
2023-02-05T10:48:13.545Z,101505.91
2023-02-05T10:51:02.607Z,101501.16
2023-02-05T10:53:31.689Z,101500.66
2023-02-05T10:56:01.905Z,101499.80
2023-02-05T10:58:56.546Z,101503.80
2023-02-05T11:01:31.068Z,101503.58
2023-02-05T11:04:07.804Z,101504.72
2023-02-05T11:06:45.783Z,101505.35
2023-02-05T11:09:25.786Z,101504.80
2023-02-05T11:12:16.476Z,101503.56
2023-02-05T11:14:47.404Z,101503.96
2023-02-05T11:17:24.734Z,101496.23
2023-02-05T11:19:59.243Z,101501.83
2023-02-05T11:22:36.107Z,101495.58
2023-02-05T11:25:17.073Z,101493.77
2023-02-05T11:28:05.032Z,101489.31
2023-02-05T11:30:52.120Z,101499.81
2023-02-05T11:33:27.907Z,101495.27
2023-02-05T11:36:03.335Z,101491.39
2023-02-05T11:38:43.825Z,101488.52
2023-02-05T11:41:15.397Z,101487.53
2023-02-05T11:43:51.711Z,101489.89
2023-02-05T11:46:23.769Z,101494.36
2023-02-05T11:48:55.024Z,101497.03
2023-02-05T11:51:35.282Z,101494.52
2023-02-05T11:54:15.950Z,101494.36
2023-02-05T11:57:05.218Z,101495.92
2023-02-05T11:59:34.249Z,101499.95
2023-02-05T12:02:31.244Z,101502.44
2023-02-05T12:05:20.134Z,101498.56
2023-02-05T12:07:54.240Z,101503.17
2023-02-05T12:10:33.299Z,101506.19
2023-02-05T12:13:30.651Z,101501.88
2023-02-05T12:16:13.617Z,101504.88
2023-02-05T12:18:50.223Z,101512.05
2023-02-05T12:21:22.901Z,101512.67
2023-02-05T12:24:32.043Z,101512.98
2023-02-05T12:27:17.004Z,101519.02
2023-02-05T12:30:13.036Z,101523.28
2023-02-05T12:33:01.209Z,101527.38
2023-02-05T12:35:47.880Z,101527.61
2023-02-05T12:38:46.948Z,101530.99
2023-02-05T12:41:22.241Z,101531.89
2023-02-05T12:43:54.370Z,101539.98
2023-02-05T12:46:33.721Z,101537.95
2023-02-05T12:49:29.647Z,101540.98
2023-02-05T12:52:16.048Z,101548.38
2023-02-05T12:54:59.996Z,101550.60
2023-02-05T12:57:38.388Z,101552.61
2023-02-05T13:00:19.788Z,101552.08
2023-02-05T13:03:08.658Z,101553.80
2023-02-05T13:05:55.404Z,101559.61
2023-02-05T13:08:42.888Z,101562.77
2023-02-05T13:11:18.232Z,101564.33
2023-02-05T13:13:58.799Z,101562.21
2023-02-05T13:16:50.336Z,101570.39
2023-02-05T13:19:29.654Z,101570.73
2023-02-05T13:22:19.751Z,101573.94
2023-02-05T13:25:12.911Z,101577.84
2023-02-05T13:28:17.683Z,101573.77
2023-02-05T13:30:51.732Z,101570.04
2023-02-05T13:33:20.129Z,101578.48
2023-02-05T13:36:13.434Z,101575.37
2023-02-05T13:38:53.135Z,101572.80
2023-02-05T13:41:53.538Z,101572.87
2023-02-05T13:44:31.063Z,101565.91
2023-02-05T13:47:20.939Z,101564.64
2023-02-05T13:50:23.728Z,101567.54
2023-02-05T13:53:06.357Z,101571.88
2023-02-05T13:56:19.164Z,101575.02
2023-02-05T13:59:01.893Z,101576.38
2023-02-05T14:01:41.230Z,101578.20
2023-02-05T14:04:25.562Z,101582.74
2023-02-05T14:07:04.326Z,101581.95
2023-02-05T14:09:37.682Z,101578.23
2023-02-05T14:12:09.884Z,101583.11
2023-02-05T14:14:42.850Z,101586.09
2023-02-05T14:17:31.197Z,101582.00
2023-02-05T14:20:01.303Z,101585.81
2023-02-05T14:22:39.952Z,101585.48
2023-02-05T14:25:37.072Z,101593.59
2023-02-05T14:28:20.726Z,101592.75
2023-02-05T14:30:57.269Z,101594.40
2023-02-05T14:33:44.730Z,101592.04
2023-02-05T14:36:24.985Z,101591.89
2023-02-05T14:39:01.926Z,101592.57
2023-02-05T14:41:39.043Z,101585.74
2023-02-05T14:44:19.401Z,101586.08
2023-02-05T14:47:27.511Z,101586.11
2023-02-05T14:50:17.805Z,101586.39
2023-02-05T14:52:52.397Z,101590.65
2023-02-05T14:55:36.855Z,101591.89
2023-02-05T14:58:10.786Z,101589.93
2023-02-05T15:00:45.316Z,101590.49
2023-02-05T15:03:16.886Z,101594.74
2023-02-05T15:05:45.025Z,101595.59
2023-02-05T15:08:34.513Z,101597.24
2023-02-05T15:11:23.779Z,101600.49
2023-02-05T15:14:20.563Z,101603.45
2023-02-05T15:17:11.475Z,101603.77
2023-02-05T15:19:45.653Z,101605.97
2023-02-05T15:22:25.253Z,101606.82
2023-02-05T15:24:54.797Z,101610.33
2023-02-05T15:27:42.391Z,101614.63
2023-02-05T15:30:18.402Z,101609.86
2023-02-05T15:33:00.797Z,101615.59
2023-02-05T15:35:31.142Z,101623.11
2023-02-05T15:38:04.053Z,101628.56
2023-02-05T15:40:34.595Z,101629.05
2023-02-05T15:43:22.860Z,101626.39
2023-02-05T15:46:12.886Z,101624.75
2023-02-05T15:48:41.252Z,101627.80
2023-02-05T15:51:22.847Z,101630.98
2023-02-05T15:53:51.944Z,101637.05
2023-02-05T15:56:19.930Z,101639.77
2023-02-05T15:58:52.926Z,101640.54
2023-02-05T16:01:35.251Z,101646.20
2023-02-05T16:04:28.049Z,101648.14
2023-02-05T16:06:56.837Z,101654.32
2023-02-05T16:09:27.884Z,101654.17
2023-02-05T16:11:56.879Z,101650.55
2023-02-05T16:14:28.773Z,101654.01
2023-02-05T16:17:12.284Z,101650.86
2023-02-05T16:19:50.169Z,101652.68
2023-02-05T16:22:44.365Z,101654.38
2023-02-05T16:25:31.063Z,101656.55
2023-02-05T16:28:02.814Z,101661.61
2023-02-05T16:30:43.870Z,101664.23
2023-02-05T16:33:15.145Z,101666.87
2023-02-05T16:35:48.570Z,101664.05
2023-02-05T16:38:20.279Z,101664.08
2023-02-05T16:40:52.114Z,101664.69
2023-02-05T16:43:27.359Z,101665.28
2023-02-05T16:46:07.023Z,101664.06
2023-02-05T16:48:41.883Z,101662.80
2023-02-05T16:51:35.623Z,101666.23
2023-02-05T16:54:31.261Z,101670.28
2023-02-05T16:57:14.138Z,101663.41
2023-02-05T16:59:53.830Z,101667.70
2023-02-05T17:02:29.365Z,101668.29
2023-02-05T17:04:59.906Z,101669.42
2023-02-05T17:07:29.187Z,101672.61
2023-02-05T17:10:17.785Z,101673.94
2023-02-05T17:12:49.429Z,101671.17
2023-02-05T17:15:17.946Z,101678.77
2023-02-05T17:17:55.097Z,101680.25
2023-02-05T17:20:26.361Z,101681.94
2023-02-05T17:23:00.574Z,101681.17
2023-02-05T17:25:34.188Z,101685.43
2023-02-05T17:28:03.798Z,101688.14
2023-02-05T17:30:32.737Z,101683.23
2023-02-05T17:33:14.508Z,101682.30
2023-02-05T17:35:43.024Z,101681.01
2023-02-05T17:38:11.915Z,101686.45
2023-02-05T17:40:40.626Z,101681.35
2023-02-05T17:43:08.982Z,101680.98
2023-02-05T17:45:39.936Z,101685.42
2023-02-05T17:48:08.509Z,101691.11
2023-02-05T17:50:38.124Z,101688.05
2023-02-05T17:53:08.960Z,101691.45
2023-02-05T17:55:39.374Z,101692.58
2023-02-05T17:58:07.549Z,101695.39
2023-02-05T18:00:36.279Z,101692.70
2023-02-05T18:03:04.832Z,101697.09
2023-02-05T18:05:33.301Z,101697.98
2023-02-05T18:08:03.321Z,101698.45
2023-02-05T18:10:32.413Z,101701.90
2023-02-05T18:13:01.217Z,101698.55
2023-02-05T18:15:32.450Z,101696.23
2023-02-05T18:18:01.147Z,101698.42
2023-02-05T18:20:29.351Z,101699.90
2023-02-05T18:22:57.730Z,101702.27
2023-02-05T18:25:26.887Z,101705.00
2023-02-05T18:27:56.449Z,101704.23
2023-02-05T18:30:25.108Z,101706.73
2023-02-05T18:32:53.357Z,101706.39
2023-02-05T18:35:21.837Z,101709.22
2023-02-05T18:37:50.116Z,101709.27
2023-02-05T18:40:18.906Z,101707.35
2023-02-05T18:42:47.287Z,101705.78
2023-02-05T18:45:15.570Z,101702.95
2023-02-05T18:47:44.040Z,101706.64
2023-02-05T18:50:12.628Z,101712.80
2023-02-05T18:52:41.183Z,101713.86
2023-02-05T18:55:12.569Z,101715.60
2023-02-05T18:57:41.052Z,101711.98
2023-02-05T19:00:10.462Z,101706.33
2023-02-05T19:02:41.330Z,101707.27
2023-02-05T19:05:11.677Z,101707.83
2023-02-05T19:07:40.205Z,101708.12
2023-02-05T19:10:08.900Z,101706.79
2023-02-05T19:12:37.566Z,101703.89
2023-02-05T19:15:07.279Z,101707.42
2023-02-05T19:17:35.663Z,101703.52
2023-02-05T19:20:06.081Z,101707.77
2023-02-05T19:22:34.258Z,101708.62
2023-02-05T19:25:02.833Z,101714.51
2023-02-05T19:27:31.210Z,101715.04
2023-02-05T19:29:59.588Z,101718.80
2023-02-05T19:32:27.968Z,101715.22
2023-02-05T19:34:56.960Z,101708.25
2023-02-05T19:37:26.070Z,101712.90
2023-02-05T19:39:54.128Z,101711.92
2023-02-05T19:42:22.719Z,101714.02
2023-02-05T19:44:51.299Z,101713.52
2023-02-05T19:47:21.420Z,101712.59
2023-02-05T19:49:49.914Z,101710.09
2023-02-05T19:52:18.259Z,101707.98
2023-02-05T19:54:46.475Z,101709.49
2023-02-05T19:57:14.733Z,101706.66
2023-02-05T19:59:43.318Z,101704.97
2023-02-05T20:02:19.462Z,101709.70
2023-02-05T20:04:48.125Z,101713.92
2023-02-05T20:07:16.413Z,101711.70
2023-02-05T20:09:44.687Z,101716.91
2023-02-05T20:12:13.189Z,101718.03
2023-02-05T20:14:41.675Z,101714.48
2023-02-05T20:17:12.105Z,101714.47
2023-02-05T20:19:40.383Z,101712.48
2023-02-05T20:22:09.477Z,101710.11
2023-02-05T20:24:37.816Z,101717.73
2023-02-05T20:27:06.134Z,101720.43
2023-02-05T20:29:53.211Z,101723.75
2023-02-05T20:32:21.526Z,101719.70
2023-02-05T20:34:50.431Z,101720.59
2023-02-05T20:37:20.028Z,101720.43
2023-02-05T20:39:48.409Z,101721.18
2023-02-05T20:42:16.887Z,101723.66
2023-02-05T20:44:45.469Z,101722.38
2023-02-05T20:47:14.626Z,101726.64
2023-02-05T20:49:42.998Z,101723.56
2023-02-05T20:52:12.145Z,101729.09
2023-02-05T20:54:41.037Z,101728.63
2023-02-05T20:57:09.321Z,101725.00
2023-02-05T20:59:38.790Z,101724.70
2023-02-05T21:02:07.116Z,101723.83
2023-02-05T21:04:37.049Z,101722.70
2023-02-05T21:07:05.307Z,101718.48
2023-02-05T21:09:33.666Z,101723.80
2023-02-05T21:12:02.251Z,101724.88
2023-02-05T21:14:30.955Z,101728.30
2023-02-05T21:17:00.033Z,101734.40
2023-02-05T21:19:28.313Z,101737.15
2023-02-05T21:21:57.314Z,101737.90
2023-02-05T21:24:25.476Z,101735.70
2023-02-05T21:26:53.653Z,101741.63
2023-02-05T21:29:22.336Z,101741.23
2023-02-05T21:31:55.955Z,101738.77
2023-02-05T21:34:27.026Z,101742.50
2023-02-05T21:36:56.390Z,101743.27
2023-02-05T21:39:25.772Z,101745.06
2023-02-05T21:41:54.895Z,101751.72
2023-02-05T21:44:24.312Z,101751.49
2023-02-05T21:46:53.964Z,101751.88
2023-02-05T21:49:22.378Z,101751.54
2023-02-05T21:51:53.446Z,101748.38
2023-02-05T21:54:25.553Z,101746.59
2023-02-05T21:56:54.505Z,101751.44
2023-02-05T21:59:23.676Z,101750.81
2023-02-05T22:01:52.111Z,101749.15
2023-02-05T22:04:21.051Z,101754.89
2023-02-05T22:06:51.283Z,101753.61
2023-02-05T22:09:19.457Z,101752.31
2023-02-05T22:11:51.133Z,101749.05
2023-02-05T22:14:19.356Z,101748.07
2023-02-05T22:16:48.118Z,101744.11
2023-02-05T22:19:16.654Z,101747.73
2023-02-05T22:21:44.930Z,101750.13
2023-02-05T22:24:18.593Z,101749.02
2023-02-05T22:26:47.830Z,101751.20
2023-02-05T22:29:19.186Z,101748.95
2023-02-05T22:31:57.045Z,101751.86
2023-02-05T22:34:25.564Z,101755.73
2023-02-05T22:36:53.942Z,101758.85
2023-02-05T22:39:22.730Z,101762.53
2023-02-05T22:41:51.116Z,101761.90
2023-02-05T22:44:19.491Z,101760.00
2023-02-05T22:46:48.072Z,101762.59
2023-02-05T22:49:16.245Z,101763.34
2023-02-05T22:51:45.644Z,101757.30
2023-02-05T22:54:15.083Z,101756.13
2023-02-05T22:56:44.371Z,101753.96
2023-02-05T22:59:13.149Z,101755.07
2023-02-05T23:01:41.318Z,101755.79
2023-02-05T23:04:10.104Z,101760.68
2023-02-05T23:06:41.685Z,101762.37
2023-02-05T23:09:14.642Z,101766.52
2023-02-05T23:11:43.942Z,101765.11
2023-02-05T23:14:14.374Z,101760.89
2023-02-05T23:16:45.300Z,101764.00
2023-02-05T23:19:16.973Z,101757.29
2023-02-05T23:21:46.576Z,101763.55
2023-02-05T23:24:15.316Z,101757.39
2023-02-05T23:26:45.974Z,101754.64
2023-02-05T23:29:16.646Z,101760.61
2023-02-05T23:31:45.613Z,101757.13
2023-02-05T23:34:14.238Z,101755.77
2023-02-05T23:36:42.377Z,101753.38
2023-02-05T23:39:10.887Z,101758.30
2023-02-05T23:41:40.119Z,101758.98
2023-02-05T23:44:12.268Z,101756.56
2023-02-05T23:46:42.516Z,101761.22
2023-02-05T23:49:11.655Z,101764.67
2023-02-05T23:51:40.259Z,101768.35
2023-02-05T23:54:10.664Z,101770.23
2023-02-05T23:56:39.144Z,101770.67
2023-02-05T23:59:09.001Z,101776.29
